Terminal Aerodrome Forecast
Issued by NWS Jackson, MS

Home | Current Version | Previous Version | Text Only | Print | Product List | Glossary On
Versions: 1 2 3 4 5 6 7 8 9 10 11 12 13 14
000
FTUS44 KJAN 252320
TAFHBG
TAF
KHBG 252320Z 2600/2624 22006KT P6SM BKN120
     FM260800 25003KT 1SM BR BKN005
     FM261000 25003KT 1/2SM FG OVC001
     FM261500 28006KT P6SM SCT015=

USA.gov is the U.S. government's official web portal to all federal, state and local government web resources and services.